Repülésmeteorológia

METAR


Utolsó módosítás időpontja: 2022-12-09 21:50:00
660
SAHU41 HASM 092200
METAR LHSM 092145Z AUTO VRB02KT 2200 -SHRA BR VV004 06/06 Q0999

TAF


Utolsó módosítás időpontja: 2022-12-09 20:25:00
654
FCHU99 LHSM 092000
TAF LHSM 092000Z NIL